sensor_id;sensor_type;location;lat;lon;timestamp;P1;durP1;ratioP1;P2;durP2;ratioP2
51006;SDS011;37034;47.886;-3.904;2023-02-27T00:02:02;13.82;;;1.70;;
51006;SDS011;37034;47.886;-3.904;2023-02-27T00:11:47;12.40;;;1.55;;
51006;SDS011;37034;47.886;-3.904;2023-02-27T00:15:04;11.88;;;2.10;;
51006;SDS011;37034;47.886;-3.904;2023-02-27T00:18:07;11.63;;;2.13;;
51006;SDS011;37034;47.886;-3.904;2023-02-27T00:24:35;11.40;;;1.88;;
51006;SDS011;37034;47.886;-3.904;2023-02-27T00:27:41;14.77;;;1.60;;
51006;SDS011;37034;47.886;-3.904;2023-02-27T00:33:30;13.32;;;1.52;;
51006;SDS011;37034;47.886;-3.904;2023-02-27T00:39:45;17.70;;;1.90;;
51006;SDS011;37034;47.886;-3.904;2023-02-27T00:49:13;11.02;;;1.75;;
51006;SDS011;37034;47.886;-3.904;2023-02-27T00:52:36;12.55;;;1.75;;
51006;SDS011;37034;47.886;-3.904;2023-02-27T01:03:10;17.90;;;3.72;;
51006;SDS011;37034;47.886;-3.904;2023-02-27T01:10:40;9.63;;;1.45;;
51006;SDS011;37034;47.886;-3.904;2023-02-27T01:24:27;10.82;;;1.75;;
51006;SDS011;37034;47.886;-3.904;2023-02-27T01:37:21;17.58;;;2.83;;
51006;SDS011;37034;47.886;-3.904;2023-02-27T01:47:16;10.98;;;1.80;;
51006;SDS011;37034;47.886;-3.904;2023-02-27T02:07:33;10.77;;;2.03;;
51006;SDS011;37034;47.886;-3.904;2023-02-27T02:10:31;12.13;;;2.20;;
51006;SDS011;37034;47.886;-3.904;2023-02-27T02:54:01;11.95;;;1.70;;
51006;SDS011;37034;47.886;-3.904;2023-02-27T03:07:00;9.23;;;1.42;;
51006;SDS011;37034;47.886;-3.904;2023-02-27T03:16:59;13.25;;;1.40;;
51006;SDS011;37034;47.886;-3.904;2023-02-27T03:22:54;13.77;;;2.17;;
51006;SDS011;37034;47.886;-3.904;2023-02-27T03:26:12;12.13;;;1.80;;
51006;SDS011;37034;47.886;-3.904;2023-02-27T03:29:36;16.38;;;1.73;;
51006;SDS011;37034;47.886;-3.904;2023-02-27T03:35:56;12.07;;;1.83;;
51006;SDS011;37034;47.886;-3.904;2023-02-27T03:47:55;8.48;;;1.67;;
51006;SDS011;37034;47.886;-3.904;2023-02-27T03:50:51;11.25;;;2.10;;
51006;SDS011;37034;47.886;-3.904;2023-02-27T03:59:22;11.07;;;1.33;;
51006;SDS011;37034;47.886;-3.904;2023-02-27T04:04:49;10.15;;;1.20;;
51006;SDS011;37034;47.886;-3.904;2023-02-27T04:25:50;14.77;;;1.73;;
51006;SDS011;37034;47.886;-3.904;2023-02-27T04:31:49;14.68;;;1.90;;
51006;SDS011;37034;47.886;-3.904;2023-02-27T04:35:14;8.15;;;1.30;;
51006;SDS011;37034;47.886;-3.904;2023-02-27T04:44:57;13.73;;;1.85;;
51006;SDS011;37034;47.886;-3.904;2023-02-27T04:47:56;9.82;;;1.70;;
51006;SDS011;37034;47.886;-3.904;2023-02-27T04:51:00;7.78;;;1.63;;
51006;SDS011;37034;47.886;-3.904;2023-02-27T04:54:16;9.02;;;1.77;;
51006;SDS011;37034;47.886;-3.904;2023-02-27T04:57:10;5.57;;;1.30;;
51006;SDS011;37034;47.886;-3.904;2023-02-27T05:00:15;13.18;;;1.60;;
51006;SDS011;37034;47.886;-3.904;2023-02-27T05:05:56;10.25;;;1.50;;
51006;SDS011;37034;47.886;-3.904;2023-02-27T05:17:59;7.80;;;1.20;;
51006;SDS011;37034;47.886;-3.904;2023-02-27T05:56:33;8.63;;;1.30;;
51006;SDS011;37034;47.886;-3.904;2023-02-27T05:59:56;10.23;;;1.63;;
51006;SDS011;37034;47.886;-3.904;2023-02-27T06:13:10;10.60;;;2.15;;
51006;SDS011;37034;47.886;-3.904;2023-02-27T06:22:24;14.30;;;2.30;;
51006;SDS011;37034;47.886;-3.904;2023-02-27T06:25:43;17.65;;;2.60;;
51006;SDS011;37034;47.886;-3.904;2023-02-27T06:28:44;14.55;;;2.60;;
51006;SDS011;37034;47.886;-3.904;2023-02-27T06:44:38;14.50;;;1.95;;
51006;SDS011;37034;47.886;-3.904;2023-02-27T06:58:35;17.70;;;2.55;;
51006;SDS011;37034;47.886;-3.904;2023-02-27T07:04:28;13.85;;;2.50;;
51006;SDS011;37034;47.886;-3.904;2023-02-27T07:07:23;13.07;;;2.42;;
51006;SDS011;37034;47.886;-3.904;2023-02-27T07:10:11;15.45;;;3.42;;
51006;SDS011;37034;47.886;-3.904;2023-02-27T07:19:37;17.05;;;2.47;;
51006;SDS011;37034;47.886;-3.904;2023-02-27T07:25:33;15.63;;;2.35;;
51006;SDS011;37034;47.886;-3.904;2023-02-27T07:28:32;15.65;;;2.53;;
51006;SDS011;37034;47.886;-3.904;2023-02-27T07:38:07;20.15;;;2.67;;
51006;SDS011;37034;47.886;-3.904;2023-02-27T07:40:33;11.20;;;1.70;;
51006;SDS011;37034;47.886;-3.904;2023-02-27T07:43:29;12.73;;;2.78;;
51006;SDS011;37034;47.886;-3.904;2023-02-27T07:46:00;17.77;;;2.10;;
51006;SDS011;37034;47.886;-3.904;2023-02-27T07:58:36;14.55;;;2.58;;
51006;SDS011;37034;47.886;-3.904;2023-02-27T08:01:48;21.10;;;2.53;;
51006;SDS011;37034;47.886;-3.904;2023-02-27T08:04:22;12.70;;;3.55;;
51006;SDS011;37034;47.886;-3.904;2023-02-27T08:07:24;12.18;;;1.80;;
51006;SDS011;37034;47.886;-3.904;2023-02-27T08:10:19;18.13;;;2.60;;
51006;SDS011;37034;47.886;-3.904;2023-02-27T08:16:25;14.65;;;1.60;;
51006;SDS011;37034;47.886;-3.904;2023-02-27T08:19:30;15.07;;;1.65;;
51006;SDS011;37034;47.886;-3.904;2023-02-27T08:22:16;14.35;;;2.20;;
51006;SDS011;37034;47.886;-3.904;2023-02-27T08:25:17;23.35;;;2.45;;
51006;SDS011;37034;47.886;-3.904;2023-02-27T08:28:16;12.27;;;1.50;;
51006;SDS011;37034;47.886;-3.904;2023-02-27T08:30:44;10.32;;;1.67;;
51006;SDS011;37034;47.886;-3.904;2023-02-27T08:43:01;13.40;;;1.80;;
51006;SDS011;37034;47.886;-3.904;2023-02-27T08:45:35;17.77;;;1.95;;
51006;SDS011;37034;47.886;-3.904;2023-02-27T08:48:01;12.75;;;1.60;;
51006;SDS011;37034;47.886;-3.904;2023-02-27T08:50:48;15.75;;;1.50;;
51006;SDS011;37034;47.886;-3.904;2023-02-27T08:53:24;14.50;;;2.15;;
51006;SDS011;37034;47.886;-3.904;2023-02-27T08:55:55;6.87;;;1.10;;
51006;SDS011;37034;47.886;-3.904;2023-02-27T09:01:10;15.23;;;2.53;;
51006;SDS011;37034;47.886;-3.904;2023-02-27T09:03:45;17.13;;;2.15;;
51006;SDS011;37034;47.886;-3.904;2023-02-27T09:06:11;11.33;;;1.57;;
51006;SDS011;37034;47.886;-3.904;2023-02-27T09:08:37;11.35;;;2.08;;
51006;SDS011;37034;47.886;-3.904;2023-02-27T09:11:05;17.42;;;2.45;;
51006;SDS011;37034;47.886;-3.904;2023-02-27T09:13:34;17.08;;;1.98;;
51006;SDS011;37034;47.886;-3.904;2023-02-27T09:16:02;15.38;;;2.88;;
51006;SDS011;37034;47.886;-3.904;2023-02-27T09:18:28;15.07;;;2.83;;
51006;SDS011;37034;47.886;-3.904;2023-02-27T09:20:54;17.42;;;2.65;;
51006;SDS011;37034;47.886;-3.904;2023-02-27T09:23:20;8.00;;;1.55;;
51006;SDS011;37034;47.886;-3.904;2023-02-27T09:25:46;17.38;;;1.70;;
51006;SDS011;37034;47.886;-3.904;2023-02-27T09:28:12;13.60;;;1.77;;
51006;SDS011;37034;47.886;-3.904;2023-02-27T09:30:38;15.25;;;1.80;;
51006;SDS011;37034;47.886;-3.904;2023-02-27T09:33:04;10.23;;;1.43;;
51006;SDS011;37034;47.886;-3.904;2023-02-27T09:35:30;13.50;;;1.57;;
51006;SDS011;37034;47.886;-3.904;2023-02-27T09:37:59;12.50;;;1.53;;
51006;SDS011;37034;47.886;-3.904;2023-02-27T09:40:55;9.25;;;1.55;;
51006;SDS011;37034;47.886;-3.904;2023-02-27T09:43:41;11.52;;;1.52;;
51006;SDS011;37034;47.886;-3.904;2023-02-27T09:46:29;15.68;;;1.70;;
51006;SDS011;37034;47.886;-3.904;2023-02-27T09:48:56;10.48;;;1.45;;
51006;SDS011;37034;47.886;-3.904;2023-02-27T09:51:24;18.92;;;1.60;;
51006;SDS011;37034;47.886;-3.904;2023-02-27T09:53:53;9.80;;;1.88;;
51006;SDS011;37034;47.886;-3.904;2023-02-27T09:56:28;15.02;;;1.50;;
51006;SDS011;37034;47.886;-3.904;2023-02-27T09:59:10;10.57;;;1.30;;
51006;SDS011;37034;47.886;-3.904;2023-02-27T10:01:42;12.15;;;1.73;;
51006;SDS011;37034;47.886;-3.904;2023-02-27T10:04:26;18.85;;;2.05;;
51006;SDS011;37034;47.886;-3.904;2023-02-27T10:07:19;13.38;;;1.42;;
51006;SDS011;37034;47.886;-3.904;2023-02-27T10:15:11;10.10;;;1.23;;
51006;SDS011;37034;47.886;-3.904;2023-02-27T10:17:43;7.35;;;0.82;;
51006;SDS011;37034;47.886;-3.904;2023-02-27T10:20:25;12.90;;;1.75;;
51006;SDS011;37034;47.886;-3.904;2023-02-27T10:22:54;10.48;;;1.48;;
51006;SDS011;37034;47.886;-3.904;2023-02-27T10:25:23;22.80;;;2.40;;
51006;SDS011;37034;47.886;-3.904;2023-02-27T10:27:49;16.33;;;1.70;;
51006;SDS011;37034;47.886;-3.904;2023-02-27T10:30:21;7.70;;;0.90;;
51006;SDS011;37034;47.886;-3.904;2023-02-27T10:33:50;11.32;;;1.27;;
51006;SDS011;37034;47.886;-3.904;2023-02-27T10:35:50;9.15;;;1.15;;
51006;SDS011;37034;47.886;-3.904;2023-02-27T10:38:38;11.02;;;1.55;;
51006;SDS011;37034;47.886;-3.904;2023-02-27T10:41:25;8.07;;;1.33;;
51006;SDS011;37034;47.886;-3.904;2023-02-27T10:43:54;6.72;;;1.17;;
51006;SDS011;37034;47.886;-3.904;2023-02-27T10:46:27;5.70;;;1.10;;
51006;SDS011;37034;47.886;-3.904;2023-02-27T10:48:56;5.70;;;1.13;;
51006;SDS011;37034;47.886;-3.904;2023-02-27T10:51:25;14.32;;;1.77;;
51006;SDS011;37034;47.886;-3.904;2023-02-27T10:56:48;11.15;;;1.80;;
51006;SDS011;37034;47.886;-3.904;2023-02-27T10:59:26;11.30;;;1.38;;
51006;SDS011;37034;47.886;-3.904;2023-02-27T11:04:26;8.40;;;1.00;;
51006;SDS011;37034;47.886;-3.904;2023-02-27T11:06:55;7.97;;;1.02;;
51006;SDS011;37034;47.886;-3.904;2023-02-27T11:09:26;11.75;;;1.00;;
51006;SDS011;37034;47.886;-3.904;2023-02-27T11:12:17;8.25;;;1.00;;
51006;SDS011;37034;47.886;-3.904;2023-02-27T11:14:52;10.20;;;0.93;;
51006;SDS011;37034;47.886;-3.904;2023-02-27T11:19:52;11.20;;;1.50;;
51006;SDS011;37034;47.886;-3.904;2023-02-27T11:22:20;9.30;;;0.95;;
51006;SDS011;37034;47.886;-3.904;2023-02-27T11:24:48;7.95;;;0.80;;
51006;SDS011;37034;47.886;-3.904;2023-02-27T11:29:58;8.95;;;1.10;;
51006;SDS011;37034;47.886;-3.904;2023-02-27T11:32:25;6.70;;;1.02;;
51006;SDS011;37034;47.886;-3.904;2023-02-27T11:35:00;11.13;;;1.93;;
51006;SDS011;37034;47.886;-3.904;2023-02-27T11:37:30;7.63;;;1.23;;
51006;SDS011;37034;47.886;-3.904;2023-02-27T11:42:48;11.15;;;1.90;;
51006;SDS011;37034;47.886;-3.904;2023-02-27T11:47:49;5.70;;;0.50;;
51006;SDS011;37034;47.886;-3.904;2023-02-27T11:55:52;7.38;;;0.75;;
51006;SDS011;37034;47.886;-3.904;2023-02-27T11:58:20;7.70;;;1.05;;
51006;SDS011;37034;47.886;-3.904;2023-02-27T12:01:02;8.15;;;0.80;;
51006;SDS011;37034;47.886;-3.904;2023-02-27T12:06:20;9.90;;;0.90;;
51006;SDS011;37034;47.886;-3.904;2023-02-27T12:08:54;7.90;;;0.85;;
51006;SDS011;37034;47.886;-3.904;2023-02-27T12:11:25;8.23;;;1.10;;
51006;SDS011;37034;47.886;-3.904;2023-02-27T12:14:03;3.92;;;0.90;;
51006;SDS011;37034;47.886;-3.904;2023-02-27T12:16:52;4.20;;;0.90;;
51006;SDS011;37034;47.886;-3.904;2023-02-27T12:19:25;6.82;;;1.00;;
51006;SDS011;37034;47.886;-3.904;2023-02-27T12:21:57;6.32;;;1.00;;
51006;SDS011;37034;47.886;-3.904;2023-02-27T12:24:28;7.07;;;0.77;;
51006;SDS011;37034;47.886;-3.904;2023-02-27T12:27:07;13.10;;;1.40;;
51006;SDS011;37034;47.886;-3.904;2023-02-27T12:29:50;4.55;;;0.55;;
51006;SDS011;37034;47.886;-3.904;2023-02-27T12:32:24;8.43;;;1.25;;
51006;SDS011;37034;47.886;-3.904;2023-02-27T12:37:39;7.65;;;1.00;;
51006;SDS011;37034;47.886;-3.904;2023-02-27T12:40:05;8.93;;;1.23;;
51006;SDS011;37034;47.886;-3.904;2023-02-27T12:56:14;6.53;;;1.00;;
51006;SDS011;37034;47.886;-3.904;2023-02-27T13:01:47;8.57;;;1.15;;
51006;SDS011;37034;47.886;-3.904;2023-02-27T13:04:21;7.57;;;1.48;;
51006;SDS011;37034;47.886;-3.904;2023-02-27T13:14:59;4.82;;;0.80;;
51006;SDS011;37034;47.886;-3.904;2023-02-27T13:20:21;6.43;;;0.90;;
51006;SDS011;37034;47.886;-3.904;2023-02-27T13:25:46;5.10;;;0.63;;
51006;SDS011;37034;47.886;-3.904;2023-02-27T13:28:19;7.03;;;0.75;;
51006;SDS011;37034;47.886;-3.904;2023-02-27T13:30:54;7.38;;;0.60;;
51006;SDS011;37034;47.886;-3.904;2023-02-27T13:36:39;7.18;;;1.00;;
51006;SDS011;37034;47.886;-3.904;2023-02-27T13:42:04;6.28;;;1.15;;
51006;SDS011;37034;47.886;-3.904;2023-02-27T13:45:04;10.48;;;1.08;;
51006;SDS011;37034;47.886;-3.904;2023-02-27T13:47:50;7.05;;;1.02;;
51006;SDS011;37034;47.886;-3.904;2023-02-27T13:52:41;7.10;;;1.13;;
51006;SDS011;37034;47.886;-3.904;2023-02-27T13:58:01;9.45;;;1.58;;
51006;SDS011;37034;47.886;-3.904;2023-02-27T14:00:30;4.90;;;0.93;;
51006;SDS011;37034;47.886;-3.904;2023-02-27T14:05:32;5.13;;;1.00;;
51006;SDS011;37034;47.886;-3.904;2023-02-27T14:24:38;6.30;;;1.08;;
51006;SDS011;37034;47.886;-3.904;2023-02-27T14:27:20;6.75;;;1.33;;
51006;SDS011;37034;47.886;-3.904;2023-02-27T14:29:49;7.60;;;0.95;;
51006;SDS011;37034;47.886;-3.904;2023-02-27T14:32:20;4.72;;;0.77;;
51006;SDS011;37034;47.886;-3.904;2023-02-27T14:34:48;9.05;;;1.23;;
51006;SDS011;37034;47.886;-3.904;2023-02-27T14:37:16;7.18;;;0.82;;
51006;SDS011;37034;47.886;-3.904;2023-02-27T14:39:47;4.82;;;1.15;;
51006;SDS011;37034;47.886;-3.904;2023-02-27T14:45:10;8.70;;;1.50;;
51006;SDS011;37034;47.886;-3.904;2023-02-27T14:47:47;5.57;;;1.10;;
51006;SDS011;37034;47.886;-3.904;2023-02-27T14:50:21;12.30;;;1.63;;
51006;SDS011;37034;47.886;-3.904;2023-02-27T14:53:05;9.90;;;1.88;;
51006;SDS011;37034;47.886;-3.904;2023-02-27T14:55:44;5.15;;;1.27;;
51006;SDS011;37034;47.886;-3.904;2023-02-27T14:58:19;9.43;;;1.75;;
51006;SDS011;37034;47.886;-3.904;2023-02-27T15:03:23;9.43;;;2.83;;
51006;SDS011;37034;47.886;-3.904;2023-02-27T15:05:58;8.75;;;1.70;;
51006;SDS011;37034;47.886;-3.904;2023-02-27T15:08:44;9.32;;;1.90;;
51006;SDS011;37034;47.886;-3.904;2023-02-27T15:14:22;3.80;;;0.73;;
51006;SDS011;37034;47.886;-3.904;2023-02-27T15:16:54;6.57;;;0.70;;
51006;SDS011;37034;47.886;-3.904;2023-02-27T15:19:21;6.93;;;1.17;;
51006;SDS011;37034;47.886;-3.904;2023-02-27T15:21:50;8.68;;;1.27;;
51006;SDS011;37034;47.886;-3.904;2023-02-27T15:24:21;11.65;;;1.40;;
51006;SDS011;37034;47.886;-3.904;2023-02-27T15:26:51;6.90;;;1.00;;
51006;SDS011;37034;47.886;-3.904;2023-02-27T15:29:38;12.05;;;1.30;;
51006;SDS011;37034;47.886;-3.904;2023-02-27T15:32:13;7.65;;;1.40;;
51006;SDS011;37034;47.886;-3.904;2023-02-27T15:35:01;10.75;;;1.85;;
51006;SDS011;37034;47.886;-3.904;2023-02-27T15:37:32;8.90;;;1.35;;
51006;SDS011;37034;47.886;-3.904;2023-02-27T15:39:59;4.78;;;1.10;;
51006;SDS011;37034;47.886;-3.904;2023-02-27T15:42:26;9.50;;;1.35;;
51006;SDS011;37034;47.886;-3.904;2023-02-27T15:44:58;9.43;;;1.35;;
51006;SDS011;37034;47.886;-3.904;2023-02-27T15:47:26;4.60;;;0.80;;
51006;SDS011;37034;47.886;-3.904;2023-02-27T15:49:55;4.22;;;0.40;;
51006;SDS011;37034;47.886;-3.904;2023-02-27T15:52:39;9.20;;;0.90;;
51006;SDS011;37034;47.886;-3.904;2023-02-27T15:55:15;7.55;;;1.13;;
51006;SDS011;37034;47.886;-3.904;2023-02-27T15:57:46;5.63;;;0.85;;
51006;SDS011;37034;47.886;-3.904;2023-02-27T16:00:12;7.35;;;1.13;;
51006;SDS011;37034;47.886;-3.904;2023-02-27T16:02:43;8.68;;;1.20;;
51006;SDS011;37034;47.886;-3.904;2023-02-27T16:05:33;9.18;;;1.40;;
51006;SDS011;37034;47.886;-3.904;2023-02-27T16:07:59;7.55;;;1.48;;
51006;SDS011;37034;47.886;-3.904;2023-02-27T16:10:27;9.07;;;1.00;;
51006;SDS011;37034;47.886;-3.904;2023-02-27T16:12:55;6.82;;;0.95;;
51006;SDS011;37034;47.886;-3.904;2023-02-27T16:15:30;9.52;;;1.02;;
51006;SDS011;37034;47.886;-3.904;2023-02-27T16:23:12;8.23;;;1.30;;
51006;SDS011;37034;47.886;-3.904;2023-02-27T16:25:58;5.13;;;1.10;;
51006;SDS011;37034;47.886;-3.904;2023-02-27T16:28:26;6.65;;;1.17;;
51006;SDS011;37034;47.886;-3.904;2023-02-27T16:30:56;8.55;;;2.03;;
51006;SDS011;37034;47.886;-3.904;2023-02-27T16:33:22;10.70;;;3.00;;
51006;SDS011;37034;47.886;-3.904;2023-02-27T16:35:51;8.50;;;1.50;;
51006;SDS011;37034;47.886;-3.904;2023-02-27T16:38:36;6.97;;;1.52;;
51006;SDS011;37034;47.886;-3.904;2023-02-27T16:41:02;8.38;;;1.50;;
51006;SDS011;37034;47.886;-3.904;2023-02-27T16:43:28;7.40;;;1.10;;
51006;SDS011;37034;47.886;-3.904;2023-02-27T16:45:53;5.43;;;1.20;;
51006;SDS011;37034;47.886;-3.904;2023-02-27T16:48:20;8.95;;;1.60;;
51006;SDS011;37034;47.886;-3.904;2023-02-27T16:50:46;10.60;;;1.52;;
51006;SDS011;37034;47.886;-3.904;2023-02-27T16:53:11;3.53;;;0.90;;
51006;SDS011;37034;47.886;-3.904;2023-02-27T16:55:38;13.67;;;1.97;;
51006;SDS011;37034;47.886;-3.904;2023-02-27T16:58:04;8.25;;;1.80;;
51006;SDS011;37034;47.886;-3.904;2023-02-27T17:00:31;12.07;;;2.88;;
51006;SDS011;37034;47.886;-3.904;2023-02-27T17:02:58;13.80;;;1.83;;
51006;SDS011;37034;47.886;-3.904;2023-02-27T17:05:24;10.65;;;3.15;;
51006;SDS011;37034;47.886;-3.904;2023-02-27T17:07:50;18.63;;;5.83;;
51006;SDS011;37034;47.886;-3.904;2023-02-27T17:10:17;11.97;;;1.60;;
51006;SDS011;37034;47.886;-3.904;2023-02-27T17:12:49;6.22;;;1.20;;
51006;SDS011;37034;47.886;-3.904;2023-02-27T17:15:15;10.30;;;2.83;;
51006;SDS011;37034;47.886;-3.904;2023-02-27T17:17:42;14.25;;;2.55;;
51006;SDS011;37034;47.886;-3.904;2023-02-27T17:20:08;15.45;;;3.75;;
51006;SDS011;37034;47.886;-3.904;2023-02-27T17:22:36;11.32;;;3.70;;
51006;SDS011;37034;47.886;-3.904;2023-02-27T17:25:03;12.50;;;1.90;;
51006;SDS011;37034;47.886;-3.904;2023-02-27T17:27:29;8.88;;;2.30;;
51006;SDS011;37034;47.886;-3.904;2023-02-27T17:29:55;11.40;;;2.13;;
51006;SDS011;37034;47.886;-3.904;2023-02-27T17:32:21;10.87;;;1.33;;
51006;SDS011;37034;47.886;-3.904;2023-02-27T17:34:47;7.57;;;2.45;;
51006;SDS011;37034;47.886;-3.904;2023-02-27T17:37:16;7.80;;;1.60;;
51006;SDS011;37034;47.886;-3.904;2023-02-27T17:39:41;10.17;;;2.60;;
51006;SDS011;37034;47.886;-3.904;2023-02-27T17:42:07;14.30;;;3.30;;
51006;SDS011;37034;47.886;-3.904;2023-02-27T17:44:33;17.53;;;4.57;;
51006;SDS011;37034;47.886;-3.904;2023-02-27T17:46:58;8.57;;;1.83;;
51006;SDS011;37034;47.886;-3.904;2023-02-27T17:49:24;11.07;;;2.80;;
51006;SDS011;37034;47.886;-3.904;2023-02-27T17:51:50;16.10;;;3.33;;
51006;SDS011;37034;47.886;-3.904;2023-02-27T17:54:15;18.37;;;5.50;;
51006;SDS011;37034;47.886;-3.904;2023-02-27T17:56:41;18.30;;;5.20;;
51006;SDS011;37034;47.886;-3.904;2023-02-27T17:59:07;13.53;;;2.30;;
51006;SDS011;37034;47.886;-3.904;2023-02-27T18:01:33;14.50;;;3.87;;
51006;SDS011;37034;47.886;-3.904;2023-02-27T18:03:59;20.25;;;4.47;;
51006;SDS011;37034;47.886;-3.904;2023-02-27T18:06:25;23.33;;;5.73;;
51006;SDS011;37034;47.886;-3.904;2023-02-27T18:08:50;22.13;;;7.63;;
51006;SDS011;37034;47.886;-3.904;2023-02-27T18:11:17;23.50;;;7.13;;
51006;SDS011;37034;47.886;-3.904;2023-02-27T18:13:44;28.67;;;10.38;;
51006;SDS011;37034;47.886;-3.904;2023-02-27T18:16:10;16.90;;;4.75;;
51006;SDS011;37034;47.886;-3.904;2023-02-27T18:18:37;14.40;;;3.22;;
51006;SDS011;37034;47.886;-3.904;2023-02-27T18:21:08;11.55;;;2.33;;
51006;SDS011;37034;47.886;-3.904;2023-02-27T18:23:43;13.32;;;2.92;;
51006;SDS011;37034;47.886;-3.904;2023-02-27T18:26:14;11.55;;;3.85;;
51006;SDS011;37034;47.886;-3.904;2023-02-27T18:28:41;24.35;;;9.20;;
51006;SDS011;37034;47.886;-3.904;2023-02-27T18:31:06;18.83;;;7.20;;
51006;SDS011;37034;47.886;-3.904;2023-02-27T18:33:41;17.55;;;6.07;;
51006;SDS011;37034;47.886;-3.904;2023-02-27T18:36:07;18.07;;;5.50;;
51006;SDS011;37034;47.886;-3.904;2023-02-27T18:38:33;16.60;;;3.97;;
51006;SDS011;37034;47.886;-3.904;2023-02-27T18:40:58;10.50;;;3.13;;
51006;SDS011;37034;47.886;-3.904;2023-02-27T18:43:26;14.55;;;3.10;;
51006;SDS011;37034;47.886;-3.904;2023-02-27T18:45:52;18.05;;;5.28;;
51006;SDS011;37034;47.886;-3.904;2023-02-27T18:48:18;14.43;;;3.47;;
51006;SDS011;37034;47.886;-3.904;2023-02-27T18:50:44;21.30;;;12.83;;
51006;SDS011;37034;47.886;-3.904;2023-02-27T18:53:09;83.43;;;43.93;;
51006;SDS011;37034;47.886;-3.904;2023-02-27T18:55:35;22.83;;;13.00;;
51006;SDS011;37034;47.886;-3.904;2023-02-27T18:58:01;33.53;;;19.40;;
51006;SDS011;37034;47.886;-3.904;2023-02-27T19:00:26;24.57;;;14.27;;
51006;SDS011;37034;47.886;-3.904;2023-02-27T19:02:53;32.28;;;19.90;;
51006;SDS011;37034;47.886;-3.904;2023-02-27T19:05:18;20.50;;;9.48;;
51006;SDS011;37034;47.886;-3.904;2023-02-27T19:07:44;20.33;;;12.03;;
51006;SDS011;37034;47.886;-3.904;2023-02-27T19:10:11;31.52;;;19.15;;
51006;SDS011;37034;47.886;-3.904;2023-02-27T19:12:38;22.42;;;10.93;;
51006;SDS011;37034;47.886;-3.904;2023-02-27T19:15:05;17.42;;;5.75;;
51006;SDS011;37034;47.886;-3.904;2023-02-27T19:17:31;22.88;;;9.85;;
51006;SDS011;37034;47.886;-3.904;2023-02-27T19:19:57;17.17;;;5.13;;
51006;SDS011;37034;47.886;-3.904;2023-02-27T19:22:23;11.45;;;3.50;;
51006;SDS011;37034;47.886;-3.904;2023-02-27T19:24:53;17.98;;;4.05;;
51006;SDS011;37034;47.886;-3.904;2023-02-27T19:27:20;16.40;;;3.53;;
51006;SDS011;37034;47.886;-3.904;2023-02-27T19:29:46;9.50;;;2.57;;
51006;SDS011;37034;47.886;-3.904;2023-02-27T19:32:11;19.37;;;6.83;;
51006;SDS011;37034;47.886;-3.904;2023-02-27T19:37:04;18.20;;;3.70;;
51006;SDS011;37034;47.886;-3.904;2023-02-27T19:39:31;16.92;;;4.25;;
51006;SDS011;37034;47.886;-3.904;2023-02-27T19:41:57;16.50;;;4.60;;
51006;SDS011;37034;47.886;-3.904;2023-02-27T19:44:23;20.60;;;4.73;;
51006;SDS011;37034;47.886;-3.904;2023-02-27T19:46:50;14.73;;;3.85;;
51006;SDS011;37034;47.886;-3.904;2023-02-27T19:49:16;10.68;;;2.88;;
51006;SDS011;37034;47.886;-3.904;2023-02-27T19:51:43;17.08;;;5.35;;
51006;SDS011;37034;47.886;-3.904;2023-02-27T19:54:12;14.40;;;3.07;;
51006;SDS011;37034;47.886;-3.904;2023-02-27T19:56:39;16.50;;;4.78;;
51006;SDS011;37034;47.886;-3.904;2023-02-27T19:59:05;14.97;;;4.20;;
51006;SDS011;37034;47.886;-3.904;2023-02-27T20:01:32;12.80;;;3.10;;
51006;SDS011;37034;47.886;-3.904;2023-02-27T20:04:00;16.80;;;4.78;;
51006;SDS011;37034;47.886;-3.904;2023-02-27T20:06:28;18.15;;;3.97;;
51006;SDS011;37034;47.886;-3.904;2023-02-27T20:08:55;16.25;;;3.58;;
51006;SDS011;37034;47.886;-3.904;2023-02-27T20:11:22;18.55;;;3.78;;
51006;SDS011;37034;47.886;-3.904;2023-02-27T20:13:48;18.67;;;3.80;;
51006;SDS011;37034;47.886;-3.904;2023-02-27T20:16:16;11.90;;;3.40;;
51006;SDS011;37034;47.886;-3.904;2023-02-27T20:18:43;19.85;;;3.70;;
51006;SDS011;37034;47.886;-3.904;2023-02-27T20:21:10;10.60;;;2.70;;
51006;SDS011;37034;47.886;-3.904;2023-02-27T20:23:39;15.68;;;3.85;;
51006;SDS011;37034;47.886;-3.904;2023-02-27T20:26:12;17.42;;;4.45;;
51006;SDS011;37034;47.886;-3.904;2023-02-27T20:28:43;14.20;;;4.25;;
51006;SDS011;37034;47.886;-3.904;2023-02-27T20:31:09;14.30;;;4.77;;
51006;SDS011;37034;47.886;-3.904;2023-02-27T20:33:36;14.65;;;3.35;;
51006;SDS011;37034;47.886;-3.904;2023-02-27T20:36:06;14.63;;;4.25;;
51006;SDS011;37034;47.886;-3.904;2023-02-27T20:38:33;19.15;;;4.57;;
51006;SDS011;37034;47.886;-3.904;2023-02-27T20:41:03;19.60;;;4.40;;
51006;SDS011;37034;47.886;-3.904;2023-02-27T20:43:30;8.32;;;2.25;;
51006;SDS011;37034;47.886;-3.904;2023-02-27T20:45:55;14.73;;;2.93;;
51006;SDS011;37034;47.886;-3.904;2023-02-27T20:48:21;16.80;;;3.80;;
51006;SDS011;37034;47.886;-3.904;2023-02-27T20:50:47;13.53;;;2.60;;
51006;SDS011;37034;47.886;-3.904;2023-02-27T20:53:12;11.57;;;3.80;;
51006;SDS011;37034;47.886;-3.904;2023-02-27T20:55:45;9.87;;;2.20;;
51006;SDS011;37034;47.886;-3.904;2023-02-27T20:58:14;13.35;;;2.88;;
51006;SDS011;37034;47.886;-3.904;2023-02-27T21:00:40;15.85;;;2.75;;
51006;SDS011;37034;47.886;-3.904;2023-02-27T21:03:06;13.10;;;2.83;;
51006;SDS011;37034;47.886;-3.904;2023-02-27T21:05:31;11.83;;;2.57;;
51006;SDS011;37034;47.886;-3.904;2023-02-27T21:07:57;14.27;;;2.47;;
51006;SDS011;37034;47.886;-3.904;2023-02-27T21:10:23;15.98;;;2.40;;
51006;SDS011;37034;47.886;-3.904;2023-02-27T21:12:49;8.07;;;1.60;;
51006;SDS011;37034;47.886;-3.904;2023-02-27T21:15:14;11.33;;;1.57;;
51006;SDS011;37034;47.886;-3.904;2023-02-27T21:17:40;11.60;;;2.13;;
51006;SDS011;37034;47.886;-3.904;2023-02-27T21:20:06;17.87;;;2.70;;
51006;SDS011;37034;47.886;-3.904;2023-02-27T21:22:32;15.60;;;2.47;;
51006;SDS011;37034;47.886;-3.904;2023-02-27T21:24:58;21.02;;;5.45;;
51006;SDS011;37034;47.886;-3.904;2023-02-27T21:27:24;15.03;;;2.53;;
51006;SDS011;37034;47.886;-3.904;2023-02-27T21:29:50;12.57;;;3.07;;
51006;SDS011;37034;47.886;-3.904;2023-02-27T21:32:16;13.77;;;2.70;;
51006;SDS011;37034;47.886;-3.904;2023-02-27T21:34:42;14.32;;;1.73;;
51006;SDS011;37034;47.886;-3.904;2023-02-27T21:37:08;11.57;;;1.88;;
51006;SDS011;37034;47.886;-3.904;2023-02-27T21:39:36;14.32;;;2.38;;
51006;SDS011;37034;47.886;-3.904;2023-02-27T21:42:03;19.77;;;2.42;;
51006;SDS011;37034;47.886;-3.904;2023-02-27T21:44:28;13.75;;;2.30;;
51006;SDS011;37034;47.886;-3.904;2023-02-27T21:46:56;20.05;;;3.03;;
51006;SDS011;37034;47.886;-3.904;2023-02-27T21:49:26;17.67;;;2.25;;
51006;SDS011;37034;47.886;-3.904;2023-02-27T21:51:52;18.00;;;2.75;;
51006;SDS011;37034;47.886;-3.904;2023-02-27T21:54:18;17.08;;;2.25;;
51006;SDS011;37034;47.886;-3.904;2023-02-27T21:56:45;12.40;;;2.00;;
51006;SDS011;37034;47.886;-3.904;2023-02-27T21:59:12;17.73;;;1.98;;
51006;SDS011;37034;47.886;-3.904;2023-02-27T22:01:38;14.45;;;2.25;;
51006;SDS011;37034;47.886;-3.904;2023-02-27T22:04:04;20.08;;;2.40;;
51006;SDS011;37034;47.886;-3.904;2023-02-27T22:06:31;10.45;;;2.63;;
51006;SDS011;37034;47.886;-3.904;2023-02-27T22:08:59;10.23;;;1.77;;
51006;SDS011;37034;47.886;-3.904;2023-02-27T22:11:27;11.30;;;2.42;;
51006;SDS011;37034;47.886;-3.904;2023-02-27T22:13:53;17.27;;;2.55;;
51006;SDS011;37034;47.886;-3.904;2023-02-27T22:16:19;13.47;;;2.40;;
51006;SDS011;37034;47.886;-3.904;2023-02-27T22:18:45;21.60;;;3.75;;
51006;SDS011;37034;47.886;-3.904;2023-02-27T22:21:12;17.98;;;2.50;;
51006;SDS011;37034;47.886;-3.904;2023-02-27T22:23:44;15.13;;;2.80;;
51006;SDS011;37034;47.886;-3.904;2023-02-27T22:26:14;12.90;;;2.40;;